Skip Navigation Links
NOAA logo - Click to go to the NOAA homepage
NOAA's National Weather Service
Alaska Aviation Weather Unit
  NWS logo - Click to go to the NWS homepage
Left Navbar Graphic     19 AKDT = 03 GMT

   
NOAA is celebrating 200 years of science, service, and stewardship. Visit the NOAA 200th celebration Web site to learn more.
USA.gov is the U.S. Government's official Web portal to all Federal, state and local government Web resources and services.
Facebook
NWS on Facebook

Important Change Regarding the AAWU Web Presence

 

Over the last several months, the AAWU has been working to navigate its webpages to a nationally supported server. Security, as well as other needs, have necessitated the change.  In the process, we have made an effort to enhance the functionality of our website, as well as some of our products. As of June 20, 2017, aawu.arh.noaa.gov will be discontinued. The new AAWU web address is weather.gov/aawu. It is now live and will run in-parallel with the old site until it is discontinued. Please send any feedback or questions regarding the new webpages to nws.ar.aawu.webauthors@noaa.gov.  Thank you for your patience during this time of transition.
AAWU Home :: Display TAF Add Bookmark
METAR PAGL 242116Z AUTO 17009KT 2 1/2SM BKN008 OVC011 04/00 A2951
 RMK AO1=

METAR PAGL 242136Z AUTO 18012KT 1/2SM BKN005 BKN009 OVC013 05/01 A2952
     RMK AO1=

METAR PAGL 242156Z AUTO 18012KT 8SM SCT012 BKN016 OVC032 05/01 A2952 RMK
     AO1=

METAR PAGL 242216Z AUTO 22011KT 4SM FEW010 BKN018 OVC031 04/01 A2953 RMK
     AO1=

METAR PAGL 242256Z AUTO 23013G20KT 10SM OVC008 04/M01 A2955 RMK AO1=

METAR PAGL 242316Z AUTO 23012G22KT 10SM OVC010 04/M01 A2956 RMK AO1=

METAR PAGL 242336Z AUTO 22012G19KT 10SM OVC012 04/M01 A2957 RMK AO1=

METAR PAGL 242356Z AUTO 22014G19KT 10SM OVC016 04/M01 A2958 RMK AO1
     60006 10060 20030 400700030 52024=

METAR PAGL 250016Z AUTO 22016G21KT 10SM BKN016 BKN021 OVC085 04/M01
     A2958 RMK AO1=

METAR PAGL 250036Z AUTO 22012G21KT 10SM BKN016 OVC085 04/M01 A2959 RMK
     AO1=

METAR PAGL 250056Z AUTO 22012G21KT 10SM OVC016 04/M02 A2960 RMK AO1=

METAR PAGL 250116Z AUTO 22011KT 10SM OVC016 04/M02 A2960 RMK AO1=

METAR PAGL 250136Z AUTO 23011G18KT 10SM OVC016 04/M02 A2961 RMK AO1=

METAR PAGL 250156Z AUTO 23012G18KT 10SM OVC016 04/M02 A2962 RMK AO1=

METAR PAGL 250216Z AUTO 24009G17KT 10SM OVC018 04/M02 A2962 RMK AO1=

METAR PAGL 250236Z AUTO 23010G17KT 10SM OVC018 03/M03 A2963 RMK AO1=

METAR PAGL 250256Z AUTO 23009KT 10SM OVC018 04/M03 A2963 RMK AO1=


NOAA's National Weather Service
Alaska Aviation Weather Unit
6930 Sand Lake Road
Anchorage, AK 99502-1845
Disclaimer
Credits
Glossary
Privacy Policy
About Us
Career Opportunities
Contact AAWU Internet Services Site last modified: April, 17th 2012